Aviation Digital Data Service (ADDS)

Output produced by METARs form (0117 UTC 16 January 2019)
found at http://www.aviationweather.gov/metar/data/
 
EVLA 160050Z AUTO 35003KT 300V030 9999 SCT027/// BKN045/// OVC063/// 00/M03 Q0995
TAF EVLA 152307Z 1600/1624 28007KT 9999 BKN020 
     BECMG 1606/1608 20007KT 
     BECMG 1614/1616 5000 -RA BR BKN005 OVC010 
     TEMPO 1616/1621 2000 BKN002 OVC010 
     TEMPO 1621/1624 20020G30KT 3000 BKN002 OVC010
       
EVRA 160050Z 31005KT 260V350 9999 3900 -SHSN VCTS FEW008 BKN017CB BKN026 M01/M03 Q0993 R36/490332 TEMPO TS
TAF AMD EVRA 160034Z 1600/1624 26007KT 9999 BKN020 
     TEMPO 1600/1604 3000 -TSSN BKN010CB 
     BECMG 1615/1617 18007KT OVC010 
     TEMPO 1617/1624 1500 -RASN OVC005 
     PROB40 
     TEMPO 1617/1624 -FZDZ
       
EVVA 160050Z AUTO 33008KT 9999 SCT031 BKN042 00/M05 Q0995